createdAt,value
2023-02-19T00:00:19.732Z,30.168
2023-02-19T00:05:19.593Z,30.168
2023-02-19T00:10:19.613Z,30.168
2023-02-19T00:15:19.621Z,30.173
2023-02-19T00:20:19.672Z,30.173
2023-02-19T00:25:19.656Z,30.173
2023-02-19T00:30:16.611Z,30.184
2023-02-19T00:35:16.595Z,30.184
2023-02-19T00:40:19.698Z,30.184
2023-02-19T00:45:19.694Z,30.185
2023-02-19T00:50:19.731Z,30.185
2023-02-19T00:55:19.757Z,30.185
2023-02-19T01:00:19.711Z,30.188
2023-02-19T01:05:19.682Z,30.188
2023-02-19T01:10:19.691Z,30.188
2023-02-19T01:15:19.708Z,30.197
2023-02-19T01:20:19.744Z,30.197
2023-02-19T01:25:16.769Z,30.197
2023-02-19T01:30:16.685Z,30.202
2023-02-19T01:35:19.837Z,30.202
2023-02-19T01:40:19.792Z,30.202
2023-02-19T01:45:19.883Z,30.213
2023-02-19T01:50:19.807Z,30.213
2023-02-19T01:55:19.908Z,30.213
2023-02-19T02:00:19.894Z,30.215
2023-02-19T02:05:19.832Z,30.215
2023-02-19T02:10:19.849Z,30.215
2023-02-19T02:15:19.903Z,30.219
2023-02-19T02:20:16.957Z,30.219
2023-02-19T02:25:16.795Z,30.219
2023-02-19T02:30:20.147Z,30.218
2023-02-19T02:35:19.963Z,30.218
2023-02-19T02:40:19.954Z,30.218
2023-02-19T02:45:19.997Z,30.218
2023-02-19T02:50:19.863Z,30.218
2023-02-19T02:55:20.046Z,30.218
2023-02-19T03:00:19.963Z,30.221
2023-02-19T03:05:20.112Z,30.221
2023-02-19T03:10:20.039Z,30.221
2023-02-19T03:15:16.880Z,30.223
2023-02-19T03:20:20.153Z,30.223
2023-02-19T03:25:20.104Z,30.223
2023-02-19T03:30:20.363Z,30.223
2023-02-19T03:35:20.063Z,30.223
2023-02-19T03:40:20.152Z,30.223
2023-02-19T03:45:20.064Z,30.221
2023-02-19T03:50:20.120Z,30.221
2023-02-19T03:55:20.250Z,30.221
2023-02-19T04:00:20.139Z,30.221
2023-02-19T04:05:17.097Z,30.221
2023-02-19T04:10:17.043Z,30.221
2023-02-19T04:15:20.254Z,30.218
2023-02-19T04:20:20.208Z,30.218
2023-02-19T04:25:20.235Z,30.218
2023-02-19T04:30:20.337Z,30.224
2023-02-19T04:35:20.180Z,30.224
2023-02-19T04:40:20.276Z,30.224
2023-02-19T04:45:20.301Z,30.229
2023-02-19T04:50:20.310Z,30.229
2023-02-19T04:55:20.234Z,30.229
2023-02-19T05:00:19.564Z,30.231
2023-02-19T05:05:19.631Z,30.231
2023-02-19T05:10:19.556Z,30.231
2023-02-19T05:15:16.379Z,30.232
2023-02-19T05:20:16.606Z,30.232
2023-02-19T05:25:19.709Z,30.232
2023-02-19T05:30:19.690Z,30.234
2023-02-19T05:35:19.640Z,30.234
2023-02-19T05:40:19.712Z,30.234
2023-02-19T05:45:19.658Z,30.233
2023-02-19T05:50:19.654Z,30.233
2023-02-19T05:55:19.657Z,30.233
2023-02-19T06:00:19.710Z,30.241
2023-02-19T06:05:19.671Z,30.241
2023-02-19T06:10:16.594Z,30.241
2023-02-19T06:15:19.707Z,30.240
2023-02-19T06:20:19.835Z,30.240
2023-02-19T06:25:19.770Z,30.240
2023-02-19T06:30:19.830Z,30.246
2023-02-19T06:35:19.814Z,30.246
2023-02-19T06:40:19.791Z,30.246
2023-02-19T06:45:19.893Z,30.247
2023-02-19T06:50:19.963Z,30.247
2023-02-19T06:55:19.815Z,30.247
2023-02-19T07:00:16.755Z,30.252
2023-02-19T07:05:16.740Z,30.252
2023-02-19T07:10:19.970Z,30.252
2023-02-19T07:15:19.892Z,30.255
2023-02-19T07:20:19.824Z,30.255
2023-02-19T07:25:19.819Z,30.255
2023-02-19T07:30:20.035Z,30.261
2023-02-19T07:35:19.947Z,30.261
2023-02-19T07:40:19.905Z,30.261
2023-02-19T07:45:20.063Z,30.259
2023-02-19T07:50:19.968Z,30.259
2023-02-19T07:55:16.875Z,30.259
2023-02-19T08:00:16.897Z,30.261
2023-02-19T08:05:20.023Z,30.261
2023-02-19T08:10:19.965Z,30.261
2023-02-19T08:15:22.393Z,30.263
2023-02-19T08:20:20.145Z,30.263
2023-02-19T08:25:20.138Z,30.263
2023-02-19T08:30:20.194Z,30.264
2023-02-19T08:35:20.134Z,30.264
2023-02-19T08:40:20.074Z,30.264
2023-02-19T08:45:20.117Z,30.272
2023-02-19T08:50:17.053Z,30.272
2023-02-19T08:55:17.302Z,30.272
2023-02-19T09:00:20.144Z,30.277
2023-02-19T09:05:20.146Z,30.277
2023-02-19T09:10:20.047Z,30.277
2023-02-19T09:15:20.208Z,30.281
2023-02-19T09:20:20.174Z,30.281
2023-02-19T09:25:20.425Z,30.281
2023-02-19T09:30:20.188Z,30.282
2023-02-19T09:35:20.177Z,30.282
2023-02-19T09:40:17.146Z,30.282
2023-02-19T09:45:17.165Z,30.281
2023-02-19T09:50:20.396Z,30.281
2023-02-19T09:55:20.223Z,30.281
2023-02-19T10:00:20.451Z,30.284
2023-02-19T10:05:20.392Z,30.284
2023-02-19T10:10:20.372Z,30.284
2023-02-19T10:15:20.285Z,30.291
2023-02-19T10:20:20.286Z,30.291
2023-02-19T10:25:20.334Z,30.291
2023-02-19T10:30:20.427Z,30.292
2023-02-19T10:35:17.325Z,30.292
2023-02-19T10:40:17.292Z,30.292
2023-02-19T10:45:20.542Z,30.294
2023-02-19T10:50:20.512Z,30.294
2023-02-19T10:55:20.460Z,30.294
2023-02-19T11:00:20.408Z,30.291
2023-02-19T11:05:20.535Z,30.291
2023-02-19T11:10:20.445Z,30.291
2023-02-19T11:15:20.603Z,30.292
2023-02-19T11:20:20.531Z,30.292
2023-02-19T11:25:20.495Z,30.292
2023-02-19T11:30:17.444Z,30.293
2023-02-19T11:35:17.611Z,30.293
2023-02-19T11:40:18.800Z,30.293
2023-02-19T11:45:18.626Z,30.304
2023-02-19T11:50:18.628Z,30.304
2023-02-19T11:55:18.675Z,30.304
2023-02-19T12:00:18.599Z,30.307
2023-02-19T12:05:18.736Z,30.307
2023-02-19T12:10:15.582Z,30.307
2023-02-19T12:15:18.807Z,30.309
2023-02-19T12:20:18.722Z,30.309
2023-02-19T12:25:18.725Z,30.309
2023-02-19T12:30:18.825Z,30.318
2023-02-19T12:35:18.757Z,30.318
2023-02-19T12:40:18.759Z,30.318
2023-02-19T12:45:18.955Z,30.317
2023-02-19T12:50:18.848Z,30.317
2023-02-19T12:55:18.722Z,30.317
2023-02-19T13:00:15.722Z,30.323
2023-02-19T13:05:15.702Z,30.323
2023-02-19T13:10:18.871Z,30.323
2023-02-19T13:15:18.864Z,30.332
2023-02-19T13:20:18.859Z,30.332
2023-02-19T13:25:18.942Z,30.332
2023-02-19T13:30:18.956Z,30.322
2023-02-19T13:35:18.897Z,30.322
2023-02-19T13:40:18.901Z,30.322
2023-02-19T13:45:18.852Z,30.318
2023-02-19T13:50:18.959Z,30.318
2023-02-19T13:55:15.902Z,30.318
2023-02-19T14:00:15.846Z,30.320
2023-02-19T14:05:19.203Z,30.320
2023-02-19T14:10:18.966Z,30.320
2023-02-19T14:15:18.962Z,30.323
2023-02-19T14:20:19.135Z,30.323
2023-02-19T14:25:19.179Z,30.323
2023-02-19T14:30:19.108Z,30.315
2023-02-19T14:35:19.065Z,30.315
2023-02-19T14:40:19.037Z,30.315
2023-02-19T14:45:19.069Z,30.306
2023-02-19T14:50:15.932Z,30.306
2023-02-19T14:55:19.106Z,30.306
2023-02-19T15:00:19.166Z,30.291
2023-02-19T15:05:19.100Z,30.291
2023-02-19T15:10:19.335Z,30.291
2023-02-19T15:15:19.542Z,30.290
2023-02-19T15:20:19.184Z,30.290
2023-02-19T15:25:19.141Z,30.290
2023-02-19T15:30:19.262Z,30.284
2023-02-19T15:35:19.279Z,30.284
2023-02-19T15:40:16.106Z,30.284
2023-02-19T15:45:15.979Z,30.278
2023-02-19T15:50:19.181Z,30.278
2023-02-19T15:55:19.249Z,30.278
2023-02-19T16:00:19.240Z,30.276
2023-02-19T16:05:19.186Z,30.276
2023-02-19T16:10:19.210Z,30.276
2023-02-19T16:15:19.201Z,30.267
2023-02-19T16:20:19.235Z,30.267
2023-02-19T16:25:19.312Z,30.267
2023-02-19T16:30:19.298Z,30.245
2023-02-19T16:35:16.226Z,30.245
2023-02-19T16:40:19.233Z,30.245
2023-02-19T16:45:19.586Z,30.244
2023-02-19T16:50:19.343Z,30.244
2023-02-19T16:55:19.381Z,30.244
2023-02-19T17:00:19.371Z,30.226
2023-02-19T17:05:19.407Z,30.226
2023-02-19T17:10:19.453Z,30.226
2023-02-19T17:15:19.423Z,30.212
2023-02-19T17:20:19.507Z,30.212
2023-02-19T17:25:16.284Z,30.212
2023-02-19T17:30:16.268Z,30.214
2023-02-19T17:35:19.458Z,30.214
2023-02-19T17:40:31.750Z,30.214
2023-02-19T17:45:19.395Z,30.206
2023-02-19T17:50:19.454Z,30.206
2023-02-19T17:55:19.486Z,30.206
2023-02-19T18:00:19.494Z,30.189
2023-02-19T18:05:19.483Z,30.189
2023-02-19T18:10:19.479Z,30.189
2023-02-19T18:15:19.553Z,30.183
2023-02-19T18:20:16.407Z,30.183
2023-02-19T18:25:16.331Z,30.183
2023-02-19T18:30:19.859Z,30.168
2023-02-19T18:35:19.446Z,30.168
2023-02-19T18:40:19.533Z,30.168
2023-02-19T18:45:19.632Z,30.159
2023-02-19T18:50:19.593Z,30.159
2023-02-19T18:55:19.643Z,30.159
2023-02-19T19:00:19.617Z,30.138
2023-02-19T19:05:19.706Z,30.138
2023-02-19T19:10:16.501Z,30.138
2023-02-19T19:15:18.270Z,30.141
2023-02-19T19:20:19.648Z,30.141
2023-02-19T19:25:19.653Z,30.141
2023-02-19T19:30:19.703Z,30.147
2023-02-19T19:35:19.710Z,30.147
2023-02-19T19:40:19.668Z,30.147
2023-02-19T19:45:19.716Z,30.129
2023-02-19T19:50:19.670Z,30.129
2023-02-19T19:55:19.824Z,30.129
2023-02-19T20:00:19.744Z,30.126
2023-02-19T20:05:16.543Z,30.126
2023-02-19T20:10:16.625Z,30.126
2023-02-19T20:15:19.725Z,30.107
2023-02-19T20:20:19.707Z,30.107
2023-02-19T20:25:19.709Z,30.107
2023-02-19T20:30:19.831Z,30.095
2023-02-19T20:35:19.737Z,30.095
2023-02-19T20:40:19.723Z,30.095
2023-02-19T20:45:19.665Z,30.088
2023-02-19T20:50:19.933Z,30.088
2023-02-19T20:55:19.772Z,30.088
2023-02-19T21:00:16.695Z,30.074
2023-02-19T21:05:19.881Z,30.074
2023-02-19T21:10:19.824Z,30.074
2023-02-19T21:15:19.753Z,30.073
2023-02-19T21:20:19.806Z,30.073
2023-02-19T21:25:19.877Z,30.073
2023-02-19T21:30:19.831Z,30.058
2023-02-19T21:35:19.841Z,30.058
2023-02-19T21:40:19.893Z,30.058
2023-02-19T21:45:19.912Z,30.053
2023-02-19T21:50:16.797Z,30.053
2023-02-19T21:55:16.814Z,30.053
2023-02-19T22:00:20.079Z,30.045
2023-02-19T22:05:19.936Z,30.045
2023-02-19T22:10:19.861Z,30.045
2023-02-19T22:15:20.268Z,30.044
2023-02-19T22:20:19.934Z,30.044
2023-02-19T22:25:19.932Z,30.044
2023-02-19T22:30:20.068Z,30.042
2023-02-19T22:35:20.077Z,30.042
2023-02-19T22:40:20.016Z,30.042
2023-02-19T22:45:16.903Z,30.028
2023-02-19T22:50:16.981Z,30.028
2023-02-19T22:55:20.064Z,30.028
2023-02-19T23:00:20.096Z,30.018
2023-02-19T23:05:20.059Z,30.018
2023-02-19T23:10:20.111Z,30.018
2023-02-19T23:15:20.011Z,30.026
2023-02-19T23:20:20.053Z,30.026
2023-02-19T23:25:20.058Z,30.026
2023-02-19T23:30:20.090Z,30.015
2023-02-19T23:35:20.093Z,30.015
2023-02-19T23:40:17.042Z,30.015
2023-02-19T23:45:20.066Z,30.006
2023-02-19T23:50:20.148Z,30.006
2023-02-19T23:55:20.145Z,30.006
